Time;durP1;ratioP1;P1;durP2;ratioP2;P2;SDS_P1;SDS_P2;PMS_P1;PMS_P2;Temp;Humidity;BMP_temperature;BMP_pressure;BME280_temperature;BME280_humidity;BME280_pressure;Samples;Min_cycle;Max_cycle;Signal;HPM_P1;HPM_P2
2022/06/04 00:01:27;;;;;;;2.53;1.90;;;;;;;17.83;48.03;101720.19;5086263;28;20379;-88
2022/06/04 00:03:53;;;;;;;2.95;2.30;;;;;;;17.74;51.10;101713.53;5090735;28;20070;-88
2022/06/04 00:06:18;;;;;;;3.75;2.10;;;;;;;17.71;48.47;101708.31;5071550;28;20028;-88
2022/06/04 00:08:44;;;;;;;2.72;1.95;;;;;;;17.68;48.48;101708.50;5073218;28;20031;-89
2022/06/04 00:16:37;;;;;;;3.05;2.05;;;;;;;17.62;48.78;101705.28;5086070;28;20047;-89
2022/06/04 00:19:03;;;;;;;2.63;2.15;;;;;;;17.56;49.13;101709.19;5070312;28;20023;-88
2022/06/04 00:21:28;;;;;;;2.40;2.15;;;;;;;17.56;48.50;101709.19;5067266;28;20032;-89
2022/06/04 00:23:53;;;;;;;5.43;2.20;;;;;;;17.45;48.93;101704.44;5089636;28;20028;-89
2022/06/04 00:26:19;;;;;;;4.35;2.30;;;;;;;17.48;49.02;101717.59;5088245;28;20036;-88
2022/06/04 00:28:46;;;;;;;5.18;2.25;;;;;;;17.43;48.28;101726.84;5090715;28;20103;-88
2022/06/04 00:31:11;;;;;;;4.90;2.17;;;;;;;17.39;48.22;101715.44;5081148;28;20062;-89
2022/06/04 00:33:37;;;;;;;3.10;2.00;;;;;;;17.39;48.15;101719.94;5088393;28;20686;-89
2022/06/04 00:36:03;;;;;;;2.42;2.22;;;;;;;17.32;48.61;101717.59;5083230;28;20088;-89
2022/06/04 00:38:33;;;;;;;2.30;2.10;;;;;;;17.31;48.77;101720.38;5071035;28;20024;-90
2022/06/04 00:41:14;;;;;;;3.20;2.00;;;;;;;17.28;48.27;101718.72;5068039;28;20126;-89
2022/06/04 00:44:03;;;;;;;3.60;2.15;;;;;;;17.29;47.76;101732.94;5065477;28;20115;-90
2022/06/04 00:46:41;;;;;;;3.03;2.10;;;;;;;17.21;48.23;101714.66;5070713;28;20486;-89
2022/06/04 00:49:18;;;;;;;3.15;2.10;;;;;;;17.18;48.36;101709.47;5085349;28;20587;-89
2022/06/04 00:51:52;;;;;;;3.35;2.13;;;;;;;17.12;48.62;101708.94;5065934;28;20052;-89
2022/06/04 00:54:18;;;;;;;2.70;2.30;;;;;;;17.14;48.96;101720.41;5083691;28;20039;-88
2022/06/04 00:57:31;;;;;;;2.28;2.03;;;;;;;17.14;48.23;101729.28;5066505;28;20031;-88
2022/06/04 01:00:12;;;;;;;;;;;;;;;17.21;48.51;101730.69;5083420;28;20048;-89
2022/06/04 01:03:15;;;;;;;3.97;2.25;;;;;;;17.17;48.20;101741.63;5070761;28;19915;-88
2022/06/04 01:05:56;;;;;;;2.53;2.10;;;;;;;17.12;48.67;101755.22;5081406;28;20062;-89
2022/06/04 01:08:24;;;;;;;2.60;1.98;;;;;;;17.08;49.91;101757.19;5071381;28;20039;-89
2022/06/04 01:10:55;;;;;;;2.45;2.25;;;;;;;17.07;49.73;101776.84;5068254;28;20507;-88
2022/06/04 01:13:54;;;;;;;2.70;2.10;;;;;;;17.13;48.55;101786.34;5087176;28;20027;-89
2022/06/04 01:16:38;;;;;;;2.28;2.08;;;;;;;17.10;49.38;101778.47;5059788;28;20429;-88
2022/06/04 01:19:30;;;;;;;3.10;2.13;;;;;;;17.07;48.59;101773.31;5086826;28;20105;-89
2022/06/04 01:22:17;;;;;;;2.65;2.13;;;;;;;16.93;49.58;101774.03;5066617;28;20031;-89
2022/06/04 01:25:01;;;;;;;3.00;2.40;;;;;;;16.90;49.39;101778.66;5067429;28;20056;-89
2022/06/04 01:27:37;;;;;;;4.53;2.40;;;;;;;16.86;51.06;101777.09;5065333;28;20495;-89
2022/06/04 01:30:08;;;;;;;2.72;1.88;;;;;;;16.86;49.86;101777.09;5070072;28;20216;-89
2022/06/04 01:32:52;;;;;;;4.85;2.30;;;;;;;16.85;49.30;101767.34;5086898;28;20442;-88
2022/06/04 01:35:54;;;;;;;3.65;2.30;;;;;;;16.81;49.17;101771.97;5071684;28;20035;-88
2022/06/04 01:38:26;;;;;;;3.83;2.45;;;;;;;16.66;49.71;101765.59;5086869;28;20110;-88
2022/06/04 01:41:07;;;;;;;;;;;;;;;16.80;49.32;101779.13;5067753;28;20050;-88
2022/06/04 01:43:54;;;;;;;3.35;2.50;;;;;;;16.68;50.20;101781.53;5074668;28;19912;-89
2022/06/04 01:46:30;;;;;;;3.90;2.47;;;;;;;16.59;51.32;101773.03;5086429;28;20503;-89
2022/06/04 01:49:01;;;;;;;3.60;2.28;;;;;;;16.48;50.35;101778.06;5067926;28;20515;-89
2022/06/04 01:51:31;;;;;;;2.80;2.42;;;;;;;16.57;50.38;101787.41;5063817;28;20052;-89
2022/06/04 01:54:04;;;;;;;3.03;2.45;;;;;;;16.51;50.93;101791.25;5087085;28;20111;-89
2022/06/04 01:56:35;;;;;;;4.20;2.67;;;;;;;16.50;50.72;101799.31;5081363;28;20107;-89
2022/06/04 01:59:08;;;;;;;5.25;2.80;;;;;;;16.43;50.41;101788.09;5067179;28;20032;-89
2022/06/04 02:01:35;;;;;;;3.83;2.30;;;;;;;16.43;49.83;101798.78;5087119;28;20027;-89
2022/06/04 02:04:18;;;;;;;3.45;2.75;;;;;;;16.44;51.04;101792.50;5085875;28;20028;-90
2022/06/04 02:09:42;;;;;;;3.65;2.50;;;;;;;16.29;52.28;101795.94;5085267;28;20128;-89
2022/06/04 02:12:10;;;;;;;4.10;2.60;;;;;;;16.20;51.82;101791.91;5084317;28;20138;-89
2022/06/04 02:14:36;;;;;;;3.88;2.55;;;;;;;16.22;51.59;101787.34;5067140;28;20024;-89
2022/06/04 02:17:08;;;;;;;4.07;2.70;;;;;;;16.20;51.08;101783.03;5083307;28;20046;-89
2022/06/04 02:19:33;;;;;;;2.95;2.65;;;;;;;16.22;52.61;101783.81;5080941;28;20394;-88
2022/06/04 02:21:59;;;;;;;3.85;2.80;;;;;;;16.20;51.59;101797.22;5066895;28;20126;-88
2022/06/04 02:24:24;;;;;;;3.80;2.55;;;;;;;16.20;51.48;101801.72;5068679;28;20483;-89
2022/06/04 02:26:50;;;;;;;4.63;2.80;;;;;;;16.23;53.93;101790.91;5068437;28;20368;-89
2022/06/04 02:29:16;;;;;;;3.00;2.70;;;;;;;16.20;51.59;101793.69;5065341;28;20024;-89
2022/06/04 02:31:56;;;;;;;4.47;2.92;;;;;;;16.24;51.37;101792.63;5084051;28;20027;-89
2022/06/04 02:34:34;;;;;;;3.20;2.70;;;;;;;16.19;52.55;101797.31;5070226;28;20072;-89
2022/06/04 02:37:25;;;;;;;5.07;3.20;;;;;;;16.12;51.95;101794.06;5081954;28;20028;-88
2022/06/04 02:40:09;;;;;;;3.50;2.40;;;;;;;16.04;53.47;101788.22;5070699;28;20020;-89
2022/06/04 02:42:54;;;;;;;3.10;2.80;;;;;;;16.06;52.31;101792.56;5063939;28;20044;-89
2022/06/04 02:45:24;;;;;;;2.78;2.58;;;;;;;16.02;52.60;101793.63;5062807;28;20074;-89
2022/06/04 02:47:58;;;;;;;3.70;2.75;;;;;;;15.98;53.25;101778.72;5079108;28;20036;-88
2022/06/04 02:50:41;;;;;;;4.60;2.90;;;;;;;15.98;52.44;101778.72;5086002;28;20028;-88
2022/06/04 02:53:08;;;;;;;5.43;2.65;;;;;;;15.91;53.63;101760.44;5064279;28;20500;-89
2022/06/04 02:55:38;;;;;;;3.83;2.85;;;;;;;15.87;53.15;101748.19;5066943;28;20410;-89
2022/06/04 02:58:10;;;;;;;7.13;3.38;;;;;;;15.83;52.99;101739.44;5062705;28;20124;-88
2022/06/04 03:00:35;;;;;;;6.20;3.42;;;;;;;15.80;53.58;101737.78;5065396;28;20028;-88
2022/06/04 03:03:01;;;;;;;5.65;3.40;;;;;;;15.75;53.40;101733.63;5065756;28;20066;-89
2022/06/04 03:05:27;;;;;;;4.82;3.15;;;;;;;15.68;53.40;101733.06;5061979;28;20090;-88
2022/06/04 03:07:57;;;;;;;4.68;3.25;;;;;;;15.69;54.06;101739.25;5063108;28;20021;-88
2022/06/04 03:10:27;;;;;;;9.57;3.97;;;;;;;15.65;53.82;101735.84;5062633;28;20032;-89
2022/06/04 03:12:52;;;;;;;3.60;3.30;;;;;;;15.67;54.13;101742.00;5060452;28;20054;-89
2022/06/04 03:15:18;;;;;;;3.70;3.40;;;;;;;15.61;54.13;101728.03;5058667;28;20041;-88
2022/06/04 03:17:45;;;;;;;5.10;3.80;;;;;;;15.62;54.68;101738.66;5066272;28;20028;-89
2022/06/04 03:20:17;;;;;;;4.18;3.80;;;;;;;15.65;54.99;101743.84;5058656;28;20953;-90
2022/06/04 03:22:43;;;;;;;6.63;3.63;;;;;;;15.65;54.97;101743.84;5070029;28;20024;-90
2022/06/04 03:25:08;;;;;;;5.75;4.13;;;;;;;15.61;54.88;101741.38;5068094;28;20128;-89
2022/06/04 03:27:34;;;;;;;5.85;4.30;;;;;;;15.50;56.62;101729.41;5082183;28;20063;-89
2022/06/04 03:29:59;;;;;;;4.38;3.70;;;;;;;15.52;55.77;101716.84;5067262;28;20399;-89
2022/06/04 03:32:25;;;;;;;7.18;4.30;;;;;;;15.42;55.92;101715.56;5065935;28;20103;-88
2022/06/04 03:34:50;;;;;;;9.43;4.50;;;;;;;15.42;55.83;101722.69;5064869;28;20120;-90
2022/06/04 03:37:16;;;;;;;8.32;4.28;;;;;;;15.46;55.81;101732.28;5067777;28;20056;-89
2022/06/04 03:39:41;;;;;;;6.10;4.63;;;;;;;15.40;56.28;101729.91;5069236;28;20473;-88
2022/06/04 03:42:07;;;;;;;6.03;3.85;;;;;;;15.41;55.75;101748.50;5065700;28;20111;-89
2022/06/04 03:44:32;;;;;;;5.93;4.03;;;;;;;15.40;57.06;101748.56;5067306;28;20108;-88
2022/06/04 03:46:58;;;;;;;7.68;4.15;;;;;;;15.46;56.10;101761.59;5064109;28;20059;-89
2022/06/04 03:49:23;;;;;;;6.28;4.10;;;;;;;15.41;56.64;101753.81;5065436;28;20036;-88
2022/06/04 03:51:49;;;;;;;7.78;4.28;;;;;;;15.36;56.46;101742.50;5072914;28;21155;-89
2022/06/04 03:54:14;;;;;;;9.45;4.43;;;;;;;15.40;56.20;101743.25;5070062;28;20052;-89
2022/06/04 03:56:40;;;;;;;4.70;4.20;;;;;;;15.31;56.37;101742.72;5087557;28;20027;-89
2022/06/04 03:59:05;;;;;;;8.00;5.15;;;;;;;15.32;57.59;101754.25;5066366;28;20020;-88
2022/06/04 04:01:32;;;;;;;7.00;4.65;;;;;;;15.31;57.22;101763.16;5083959;28;20102;-89
2022/06/04 04:03:59;;;;;;;7.88;4.60;;;;;;;15.22;56.92;101744.94;5088870;28;20028;-89
2022/06/04 04:06:30;;;;;;;8.32;4.22;;;;;;;15.24;57.05;101759.91;5077468;28;20157;-89
2022/06/04 04:08:56;;;;;;;5.90;3.95;;;;;;;15.28;57.73;101769.50;5073238;28;20567;-88
2022/06/04 04:11:25;;;;;;;6.90;4.75;;;;;;;15.23;57.72;101771.50;5087768;28;20145;-89
2022/06/04 04:13:52;;;;;;;7.88;4.55;;;;;;;15.24;57.23;101770.56;5093081;28;20495;-88
2022/06/04 04:16:19;;;;;;;6.35;4.60;;;;;;;15.26;57.78;101775.84;5085243;28;20027;-89
2022/06/04 04:18:44;;;;;;;8.55;5.00;;;;;;;15.28;58.53;101777.47;5085841;28;20055;-89
2022/06/04 04:21:20;;;;;;;5.93;4.63;;;;;;;15.32;57.08;101773.75;5082544;28;20471;-89
2022/06/04 04:23:46;;;;;;;7.82;4.93;;;;;;;15.34;57.47;101779.03;5068889;28;20035;-89
2022/06/04 04:26:13;;;;;;;9.13;5.20;;;;;;;15.36;57.94;101771.81;5070651;28;20024;-89
2022/06/04 04:28:39;;;;;;;6.05;5.00;;;;;;;15.32;59.11;101772.88;5087043;28;20123;-88
2022/06/04 04:31:18;;;;;;;7.03;4.88;;;;;;;15.25;57.72;101766.13;5070199;28;20024;-89
2022/06/04 04:33:43;;;;;;;6.30;4.55;;;;;;;15.32;58.42;101772.88;5090284;28;20038;-89
2022/06/04 04:36:09;;;;;;;6.57;4.82;;;;;;;15.28;57.58;101771.28;5088235;28;20032;-89
2022/06/04 04:38:35;;;;;;;8.70;4.53;;;;;;;15.35;59.37;101775.41;5089334;28;20084;-89
2022/06/04 04:41:01;;;;;;;6.70;5.35;;;;;;;15.37;57.97;101780.66;5085553;28;20028;-89
2022/06/04 04:43:27;;;;;;;9.90;5.22;;;;;;;15.36;58.91;101793.13;5083387;28;20028;-88
2022/06/04 04:46:04;;;;;;;8.15;5.10;;;;;;;15.38;57.85;101783.25;5082889;28;20039;-89
2022/06/04 04:48:29;;;;;;;6.95;4.90;;;;;;;15.44;58.99;101803.47;5089332;28;20040;-89
2022/06/04 04:50:55;;;;;;;6.80;5.38;;;;;;;15.45;59.67;101806.03;5083839;28;20027;-88
2022/06/04 04:53:20;;;;;;;7.82;5.60;;;;;;;15.48;58.34;101805.91;5071042;28;20547;-88
2022/06/04 04:55:47;;;;;;;6.60;5.28;;;;;;;15.56;58.76;101814.41;5070883;28;20434;-89
2022/06/04 04:58:13;;;;;;;6.47;4.90;;;;;;;15.62;58.01;101823.94;5087572;28;20028;-88
2022/06/04 05:00:38;;;;;;;9.40;5.22;;;;;;;15.60;58.61;101811.63;5085740;28;20069;-88
2022/06/04 05:03:04;;;;;;;9.65;4.95;;;;;;;15.59;59.33;101816.09;5065981;28;20488;-89
2022/06/04 05:05:29;;;;;;;7.68;5.53;;;;;;;15.66;59.65;101812.22;5067854;28;20020;-88
2022/06/04 05:07:55;;;;;;;11.02;5.85;;;;;;;15.65;58.25;101807.81;5088478;28;20378;-89
2022/06/04 05:10:21;;;;;;;7.88;5.40;;;;;;;15.62;58.25;101801.72;5066558;28;20482;-90
2022/06/04 05:12:46;;;;;;;8.70;5.50;;;;;;;15.67;58.62;101805.97;5069604;28;20031;-89
2022/06/04 05:15:11;;;;;;;11.88;5.47;;;;;;;15.67;58.14;101805.97;5080346;28;20035;-89
2022/06/04 05:17:37;;;;;;;9.55;5.50;;;;;;;15.66;58.30;101804.22;5085959;28;20095;-89
2022/06/04 05:20:03;;;;;;;7.85;5.25;;;;;;;15.68;58.55;101814.84;5087393;28;20054;-89
2022/06/04 05:22:28;;;;;;;7.75;5.93;;;;;;;15.65;58.83;101817.63;5083960;28;20070;-89
2022/06/04 05:24:54;;;;;;;8.98;5.70;;;;;;;15.68;58.07;101815.69;5062506;28;20032;-89
2022/06/04 05:27:19;;;;;;;8.77;5.45;;;;;;;15.77;58.59;101839.28;5085406;28;20395;-89
2022/06/04 05:29:44;;;;;;;8.32;5.40;;;;;;;15.79;59.25;101840.06;5071322;28;20076;-89
2022/06/04 05:32:10;;;;;;;8.27;5.80;;;;;;;15.77;58.22;101828.59;5086158;28;20551;-89
2022/06/04 05:34:36;;;;;;;9.68;6.25;;;;;;;15.81;58.27;101819.53;5066164;28;20035;-89
2022/06/04 05:37:03;;;;;;;8.45;6.10;;;;;;;15.92;58.03;101829.69;5067906;28;20039;-89
2022/06/04 05:39:31;;;;;;;11.18;5.90;;;;;;;15.99;57.93;101827.59;5081638;28;20494;-89
2022/06/04 05:41:57;;;;;;;7.32;5.75;;;;;;;16.02;57.56;101824.78;5083950;28;20052;-89
2022/06/04 05:44:22;;;;;;;8.98;5.43;;;;;;;16.15;57.88;101835.75;5084331;28;20517;-89
2022/06/04 05:46:48;;;;;;;9.10;6.10;;;;;;;16.21;56.85;101833.63;5068898;28;20149;-90
2022/06/04 05:49:14;;;;;;;7.85;5.43;;;;;;;16.29;57.52;101841.28;5078547;28;20108;-90
2022/06/04 05:51:41;;;;;;;7.82;6.05;;;;;;;16.30;56.88;101841.19;5063033;28;20049;-90
2022/06/04 05:54:08;;;;;;;8.63;5.65;;;;;;;16.21;57.68;101836.31;5069319;28;20043;-90
2022/06/04 05:56:41;;;;;;;9.50;5.78;;;;;;;16.27;56.93;101846.72;5083350;28;20020;-88
2022/06/04 05:59:10;;;;;;;11.55;6.30;;;;;;;16.22;56.99;101848.69;5066960;28;20020;-88
2022/06/04 06:01:38;;;;;;;10.02;6.13;;;;;;;16.18;57.60;101844.47;5080427;28;20051;-88
2022/06/04 06:04:04;;;;;;;9.15;5.72;;;;;;;16.24;57.14;101856.66;5081841;28;20028;-86
2022/06/04 06:06:31;;;;;;;9.35;6.63;;;;;;;16.26;57.84;101852.09;5070763;28;20028;-88
2022/06/04 06:09:00;;;;;;;6.93;5.68;;;;;;;16.27;57.29;101843.16;5061754;28;20035;-87
2022/06/04 06:11:26;;;;;;;10.27;5.72;;;;;;;16.37;57.73;101854.25;5081964;28;20482;-87
2022/06/04 06:13:52;;;;;;;9.55;6.30;;;;;;;16.46;56.46;101856.47;5071094;28;20065;-87
2022/06/04 06:16:21;;;;;;;8.32;6.32;;;;;;;16.43;56.65;101852.16;5083907;28;20062;-87
2022/06/04 06:18:48;;;;;;;10.35;6.45;;;;;;;16.48;56.36;101852.81;5063919;28;20525;-88
2022/06/04 06:21:16;;;;;;;12.05;6.68;;;;;;;16.57;56.47;101860.38;5091827;28;20034;-87
2022/06/04 06:23:41;;;;;;;10.02;6.95;;;;;;;16.61;55.63;101853.06;5080781;28;20046;-87
2022/06/04 06:26:18;;;;;;;9.20;6.32;;;;;;;16.70;55.63;101851.75;5085708;28;20103;-88
2022/06/04 06:28:44;;;;;;;9.68;6.65;;;;;;;16.76;55.55;101855.00;5075665;28;20510;-87
2022/06/04 06:31:13;;;;;;;9.15;6.38;;;;;;;16.79;56.50;101849.53;5067645;28;20513;-88
2022/06/04 06:33:38;;;;;;;11.65;6.95;;;;;;;16.90;56.34;101853.47;5066011;28;20016;-87
2022/06/04 06:36:07;;;;;;;10.88;7.10;;;;;;;16.99;55.48;101861.00;5060943;28;20506;-88
2022/06/04 06:38:34;;;;;;;10.48;6.45;;;;;;;17.01;54.85;101865.31;5063468;28;20073;-87
2022/06/04 06:41:00;;;;;;;8.75;6.38;;;;;;;17.11;55.46;101878.22;5071877;28;20081;-88
2022/06/04 06:46:10;;;;;;;9.57;6.88;;;;;;;17.27;54.66;101872.00;5084589;28;20089;-87
2022/06/04 06:48:38;;;;;;;7.90;5.90;;;;;;;17.32;54.91;101874.44;5084843;28;20077;-87
2022/06/04 06:51:09;;;;;;;10.35;6.68;;;;;;;17.44;53.75;101872.91;5065487;28;20028;-87
2022/06/04 06:53:35;;;;;;;10.18;6.90;;;;;;;17.47;53.90;101876.31;5080891;28;20453;-88
2022/06/04 06:56:13;;;;;;;10.02;6.60;;;;;;;17.52;53.97;101881.41;5085243;28;20032;-86
2022/06/04 06:58:38;;;;;;;9.80;7.03;;;;;;;17.47;53.65;101878.97;5092649;28;20039;-87
2022/06/04 07:01:05;;;;;;;9.88;6.82;;;;;;;17.48;53.87;101872.69;5066427;28;20040;-88
2022/06/04 07:03:30;;;;;;;8.75;6.65;;;;;;;17.46;54.47;101873.72;5073515;28;20489;-88
2022/06/04 07:05:56;;;;;;;11.25;7.63;;;;;;;17.45;53.97;101863.97;5072009;28;20024;-88
2022/06/04 07:08:22;;;;;;;9.65;7.28;;;;;;;17.58;54.58;101868.59;5088539;28;20558;-88
2022/06/04 07:10:48;;;;;;;9.63;7.10;;;;;;;17.63;53.98;101871.03;5085740;28;20054;-88
2022/06/04 07:13:13;;;;;;;11.52;6.75;;;;;;;17.73;53.65;101871.41;5092599;28;20718;-88
2022/06/04 07:15:39;;;;;;;9.68;7.03;;;;;;;17.83;53.34;101868.16;5087493;28;20063;-88
2022/06/04 07:18:04;;;;;;;10.30;7.35;;;;;;;17.92;53.28;101872.16;5089180;28;20020;-88
2022/06/04 07:20:30;;;;;;;13.10;6.78;;;;;;;17.73;53.17;101858.91;5068902;28;20056;-89
2022/06/04 07:22:55;;;;;;;11.27;6.80;;;;;;;17.78;53.99;101875.59;5089128;28;20332;-87
2022/06/04 07:25:21;;;;;;;10.35;7.22;;;;;;;17.87;53.58;101876.91;5071895;28;20123;-87
2022/06/04 07:27:46;;;;;;;12.55;7.10;;;;;;;17.96;53.63;101884.44;5070968;28;20118;-88
2022/06/04 07:30:12;;;;;;;13.50;7.80;;;;;;;17.95;54.07;101882.72;5087748;28;20032;-89
2022/06/04 07:32:37;;;;;;;10.73;6.85;;;;;;;18.01;53.84;101882.38;5061468;28;20069;-87
2022/06/04 07:35:03;;;;;;;9.30;6.72;;;;;;;18.10;53.32;101886.34;5084606;28;20035;-88
2022/06/04 07:37:28;;;;;;;11.07;6.88;;;;;;;18.07;53.37;101891.84;5079580;28;20016;-88
2022/06/04 07:39:53;;;;;;;12.18;7.03;;;;;;;17.98;52.70;101897.72;5070659;28;20019;-88
2022/06/04 07:42:19;;;;;;;9.30;7.22;;;;;;;17.99;53.27;101894.09;5085212;28;20391;-88
2022/06/04 07:44:44;;;;;;;11.55;7.22;;;;;;;18.02;54.35;101896.59;5068197;28;20094;-88
2022/06/04 07:47:09;;;;;;;10.45;6.90;;;;;;;18.00;53.00;101888.66;5088531;28;20380;-88
2022/06/04 07:49:35;;;;;;;8.18;6.60;;;;;;;18.14;54.26;101903.06;5088139;28;20407;-88
2022/06/04 07:52:00;;;;;;;11.10;7.28;;;;;;;18.12;53.29;101900.50;5087538;28;20047;-89
2022/06/04 07:54:25;;;;;;;9.35;7.05;;;;;;;18.13;53.64;101894.19;5067053;28;20577;-88
2022/06/04 07:56:53;;;;;;;11.32;7.38;;;;;;;18.13;53.08;101890.66;5067339;28;20479;-88
2022/06/04 07:59:19;;;;;;;10.43;6.68;;;;;;;18.22;52.97;101879.44;5090925;28;20436;-89
2022/06/04 08:01:45;;;;;;;11.13;6.97;;;;;;;18.38;53.11;101896.38;5083535;28;20059;-89
2022/06/04 08:04:12;;;;;;;8.75;7.32;;;;;;;18.47;52.08;101898.56;5076650;28;20544;-88
2022/06/04 08:06:38;;;;;;;9.65;7.30;;;;;;;18.44;51.27;101901.38;5091687;28;20064;-88
2022/06/04 08:09:03;;;;;;;9.88;7.25;;;;;;;18.46;52.45;101903.97;5084769;28;20063;-88
2022/06/04 08:11:31;;;;;;;9.65;7.32;;;;;;;18.47;53.70;101889.66;5069779;28;20108;-95
2022/06/04 08:13:58;;;;;;;10.25;7.57;;;;;;;18.65;53.96;101898.44;5066094;28;20086;-92
2022/06/04 08:16:23;;;;;;;9.85;7.38;;;;;;;18.63;52.70;101895.84;5078979;28;20024;-93
2022/06/04 08:18:49;;;;;;;7.80;6.97;;;;;;;18.64;51.86;101896.72;5089759;28;20081;-93
2022/06/04 08:21:15;;;;;;;9.60;7.43;;;;;;;18.64;53.04;101892.22;5066224;28;20062;-95
2022/06/04 08:23:42;;;;;;;11.68;7.28;;;;;;;18.71;51.91;101877.56;5069137;28;20027;-94
2022/06/04 08:26:08;;;;;;;11.55;7.20;;;;;;;18.89;52.86;101882.81;5069851;28;20107;-95
2022/06/04 08:28:34;;;;;;;13.63;7.70;;;;;;;19.04;52.23;101887.28;5067968;28;20085;-95
2022/06/04 08:31:03;;;;;;;10.13;7.35;;;;;;;19.12;50.56;101882.31;5068935;28;20422;-91
2022/06/04 08:33:29;;;;;;;10.93;7.53;;;;;;;19.14;52.69;101874.19;5063727;28;20085;-91
2022/06/04 08:35:55;;;;;;;13.63;7.30;;;;;;;19.15;50.29;101874.06;5074759;28;20028;-95
2022/06/04 08:38:20;;;;;;;10.55;7.35;;;;;;;19.18;50.69;101871.22;5070645;28;20028;-95
2022/06/04 08:40:50;;;;;;;8.75;7.18;;;;;;;19.24;50.84;101870.00;5071267;28;20510;-93
2022/06/04 08:43:22;;;;;;;9.23;7.28;;;;;;;19.34;50.00;101868.47;5088147;28;20436;-93
2022/06/04 08:45:47;;;;;;;;;;;;;;;19.50;50.14;101866.59;5089059;28;20024;-92
2022/06/04 08:48:29;;;;;;;9.07;7.00;;;;;;;19.48;50.23;101867.63;5086129;28;19924;-93
2022/06/04 08:50:55;;;;;;;12.65;7.95;;;;;;;19.45;49.51;101867.84;5087994;28;20297;-93
2022/06/04 08:53:25;;;;;;;9.95;7.78;;;;;;;19.52;49.53;101877.22;5087802;28;20052;-94
2022/06/04 08:58:58;;;;;;;12.35;7.88;;;;;;;19.90;49.35;101893.66;5086047;28;20437;-94
2022/06/04 09:01:38;;;;;;;11.48;7.85;;;;;;;20.04;48.62;101900.84;5070357;28;20028;-93
2022/06/04 09:04:36;;;;;;;10.43;7.32;;;;;;;20.15;48.43;101919.84;5070800;28;20498;-93
2022/06/04 09:07:27;;;;;;;12.30;8.05;;;;;;;20.20;47.86;101909.66;5084314;28;20032;-92
2022/06/04 09:10:01;;;;;;;11.57;7.80;;;;;;;20.35;48.88;101908.69;5063089;28;20475;-94
2022/06/04 09:12:43;;;;;;;11.10;8.10;;;;;;;20.53;47.18;101903.13;5084941;28;20032;-93
2022/06/04 09:15:24;;;;;;;10.60;8.20;;;;;;;20.86;48.15;101898.19;5082145;28;20067;-96
2022/06/04 09:17:54;;;;;;;11.00;8.10;;;;;;;21.19;46.60;101899.59;5066173;28;20278;-95
2022/06/04 09:20:41;;;;;;;13.23;7.60;;;;;;;21.54;45.70;101896.31;5062875;28;20020;-94
2022/06/04 09:23:46;;;;;;;10.27;7.47;;;;;;;21.89;45.52;101892.00;5079954;28;20081;-93
2022/06/04 09:26:14;;;;;;;9.07;8.18;;;;;;;22.11;43.83;101888.69;5040888;28;20124;-94
2022/06/04 09:28:45;;;;;;;12.50;8.45;;;;;;;22.19;43.36;101871.09;5066373;28;20383;-91
2022/06/04 09:31:17;;;;;;;11.93;8.00;;;;;;;22.46;43.36;101887.06;5065161;28;20024;-93
2022/06/04 09:33:42;;;;;;;12.30;8.07;;;;;;;23.06;43.04;101889.75;5070968;28;20391;-92
2022/06/04 09:36:14;;;;;;;11.63;7.67;;;;;;;23.61;41.54;101884.63;5066597;28;20035;-92
2022/06/04 09:38:51;;;;;;;14.82;7.60;;;;;;;24.18;41.25;101884.53;5068629;28;20326;-91
2022/06/04 09:41:21;;;;;;;9.43;7.55;;;;;;;24.76;39.31;101889.72;5085406;28;20038;-91
2022/06/04 09:43:59;;;;;;;8.85;7.72;;;;;;;24.80;40.22;101893.00;5066212;28;20194;-89
2022/06/04 09:46:25;;;;;;;13.88;8.30;;;;;;;24.84;38.87;101895.31;5062991;28;20474;-90
2022/06/04 09:48:53;;;;;;;10.77;8.00;;;;;;;24.57;39.40;101894.91;5086534;28;20030;-90
2022/06/04 09:51:24;;;;;;;13.30;7.70;;;;;;;24.38;39.87;101891.03;5071361;28;20067;-90
2022/06/04 09:53:59;;;;;;;12.10;8.35;;;;;;;24.55;40.57;101905.00;5084523;28;20043;-90
2022/06/04 09:56:30;;;;;;;13.02;7.90;;;;;;;24.73;41.10;101887.25;5067939;28;20069;-89
2022/06/04 09:59:18;;;;;;;10.30;8.00;;;;;;;25.15;39.51;101888.22;5087637;28;20051;-90
2022/06/04 10:02:09;;;;;;;9.70;7.85;;;;;;;25.58;39.01;101911.59;5068280;28;20077;-90
2022/06/04 10:04:46;;;;;;;8.38;7.30;;;;;;;25.65;38.12;101909.22;5062630;28;20031;-90
2022/06/04 10:07:15;;;;;;;8.43;7.40;;;;;;;25.84;37.44;101901.22;5067538;28;20062;-89
2022/06/04 10:09:56;;;;;;;14.18;7.93;;;;;;;26.15;38.53;101903.91;5080626;28;20035;-88
2022/06/04 10:15:30;;;;;;;11.05;7.68;;;;;;;26.74;37.09;101911.22;5081824;28;20082;-90
2022/06/04 10:18:12;;;;;;;10.32;7.72;;;;;;;27.04;37.49;101912.09;5070531;28;20012;-89
2022/06/04 10:20:39;;;;;;;11.05;8.13;;;;;;;26.86;34.60;101926.41;5064469;28;20035;-96
2022/06/04 10:23:11;;;;;;;10.57;8.07;;;;;;;26.50;36.08;101908.06;5087451;28;20425;-95
2022/06/04 10:25:52;;;;;;;9.43;7.70;;;;;;;26.75;36.64;101912.94;5060937;28;20016;-89
2022/06/04 10:28:37;;;;;;;11.73;9.00;;;;;;;26.66;35.14;101903.78;5082718;28;20086;-90
2022/06/04 10:31:11;;;;;;;8.90;7.97;;;;;;;26.25;35.98;101912.94;5086787;28;22013;-89
2022/06/04 10:34:01;;;;;;;16.23;8.63;;;;;;;26.06;36.79;101904.72;5081780;28;20020;-90
2022/06/04 10:36:46;;;;;;;9.93;8.05;;;;;;;26.44;37.23;101904.91;5059872;28;20032;-89
2022/06/04 10:39:14;;;;;;;12.35;8.70;;;;;;;26.80;36.35;101916.09;5066903;28;20430;-89
2022/06/04 10:41:49;;;;;;;13.60;8.35;;;;;;;27.11;35.59;101903.28;5063339;28;20028;-90
2022/06/04 10:44:37;;;;;;;11.88;8.48;;;;;;;27.29;35.09;101917.00;5081694;28;20032;-90
2022/06/04 10:47:03;;;;;;;30.58;9.70;;;;;;;27.23;35.12;101912.13;5084492;28;20016;-89
2022/06/04 10:49:56;;;;;;;12.70;8.95;;;;;;;27.25;34.90;101912.00;5085813;28;20023;-89
2022/06/04 10:52:31;;;;;;;10.40;9.15;;;;;;;27.07;34.81;101912.69;5081393;28;20119;-89
2022/06/04 10:55:21;;;;;;;11.93;9.00;;;;;;;26.76;35.51;101919.22;5080847;28;20032;-89
2022/06/04 10:57:52;;;;;;;11.73;9.18;;;;;;;26.44;35.75;101920.34;5078407;28;20020;-89
2022/06/04 11:00:28;;;;;;;18.50;9.90;;;;;;;26.30;36.52;101921.53;5060493;28;20078;-89
2022/06/04 11:03:12;;;;;;;12.82;9.55;;;;;;;26.38;36.71;101927.09;5083715;28;20023;-90
2022/06/04 11:05:47;;;;;;;17.00;9.95;;;;;;;26.87;36.83;101917.25;5083991;28;20031;-89
2022/06/04 11:08:15;;;;;;;11.98;8.25;;;;;;;27.79;33.96;101924.91;5083709;28;20062;-88
2022/06/04 11:10:47;;;;;;;10.88;8.23;;;;;;;28.15;33.54;101912.31;5063696;28;20028;-89
2022/06/04 11:13:27;;;;;;;10.23;8.00;;;;;;;28.45;32.36;101922.09;5084480;28;20062;-90
2022/06/04 11:16:03;;;;;;;12.65;9.43;;;;;;;28.50;32.71;101923.50;5066274;28;20383;-89
2022/06/04 11:18:32;;;;;;;13.23;9.40;;;;;;;28.42;32.36;101916.94;5082910;28;20100;-90
2022/06/04 11:21:15;;;;;;;11.00;8.25;;;;;;;28.84;32.60;101910.94;5066866;28;20035;-90
2022/06/04 11:23:58;;;;;;;12.75;8.13;;;;;;;28.95;32.56;101916.16;5059113;28;20020;-89
2022/06/04 11:26:26;;;;;;;14.55;9.40;;;;;;;28.72;30.59;101926.66;5081474;28;20059;-89
2022/06/04 11:28:52;;;;;;;10.70;8.65;;;;;;;28.67;32.21;101923.50;5064157;28;20081;-89
2022/06/04 11:31:30;;;;;;;12.57;9.10;;;;;;;28.70;31.52;101911.47;5083569;28;20424;-90
2022/06/04 11:33:56;;;;;;;9.88;7.95;;;;;;;28.69;32.32;101931.53;5083795;28;20270;-89
2022/06/04 11:36:30;;;;;;;11.27;8.03;;;;;;;28.39;32.41;101922.69;5083046;28;20050;-90
2022/06/04 11:39:20;;;;;;;10.63;8.13;;;;;;;28.47;33.82;101924.66;5082082;28;20376;-90
2022/06/04 11:42:01;;;;;;;10.15;9.07;;;;;;;28.12;32.93;101914.47;5066972;28;20027;-90
2022/06/04 11:44:54;;;;;;;10.35;8.70;;;;;;;28.46;32.49;101912.91;5068790;28;20032;-95
2022/06/04 11:47:47;;;;;;;12.90;9.00;;;;;;;28.72;32.93;101904.88;5086671;28;20043;-90
2022/06/04 11:53:16;;;;;;;16.00;8.90;;;;;;;29.65;31.22;101896.31;520526;26;20304;-90
2022/06/04 11:55:59;;;;;;;11.25;9.27;;;;;;;29.77;30.07;101889.59;5050016;28;20052;-90
2022/06/04 11:58:56;;;;;;;11.18;9.05;;;;;;;29.75;30.61;101886.16;5048220;28;20041;-91
2022/06/04 12:01:34;;;;;;;15.73;9.70;;;;;;;29.36;30.17;101888.44;5043144;28;20029;-91
2022/06/04 12:04:10;;;;;;;11.93;9.07;;;;;;;29.32;31.54;101877.00;5043425;28;20025;-91